Time;durP1;ratioP1;P1;durP2;ratioP2;P2;SDS_P1;SDS_P2;PMS_P1;PMS_P2;Temp;Humidity;BMP_temperature;BMP_pressure;BME280_temperature;BME280_humidity;BME280_pressure;Samples;Min_cycle;Max_cycle;Signal;HPM_P1;HPM_P2
2021/11/27 00:00:28;;;;;;;28.65;15.70;;;5.80;93.30;;;;;;5033676;28;20057;-80
2021/11/27 00:02:55;;;;;;;23.58;13.07;;;5.80;93.40;;;;;;5035731;28;20029;-81
2021/11/27 00:05:22;;;;;;;26.38;13.93;;;5.80;93.40;;;;;;5034505;28;20032;-81
2021/11/27 00:07:50;;;;;;;24.58;14.40;;;5.90;93.50;;;;;;5033989;28;20025;-81
2021/11/27 00:10:18;;;;;;;21.23;12.50;;;5.90;93.50;;;;;;5035279;28;20108;-80
2021/11/27 00:12:45;;;;;;;26.13;15.05;;;5.90;93.30;;;;;;5035392;28;20026;-80
2021/11/27 00:15:12;;;;;;;26.42;13.93;;;5.90;93.90;;;;;;5050764;28;20463;-79
2021/11/27 00:17:39;;;;;;;26.30;14.30;;;5.90;93.80;;;;;;5033972;28;20052;-80
2021/11/27 00:20:09;;;;;;;22.42;12.23;;;5.90;93.90;;;;;;5034027;28;20029;-81
2021/11/27 00:22:34;;;;;;;25.23;14.13;;;6.00;93.80;;;;;;5034011;28;20480;-80
2021/11/27 00:25:00;;;;;;;26.38;14.10;;;6.00;94.70;;;;;;5033831;28;20103;-80
2021/11/27 00:27:26;;;;;;;23.08;13.48;;;6.10;94.50;;;;;;5034596;28;20037;-80
2021/11/27 00:29:53;;;;;;;24.35;13.57;;;6.20;94.40;;;;;;5033392;28;20038;-80
2021/11/27 00:32:19;;;;;;;23.33;14.10;;;6.20;94.30;;;;;;5034592;28;20040;-79
2021/11/27 00:34:45;;;;;;;27.27;14.77;;;6.20;94.70;;;;;;5033653;28;20124;-80
2021/11/27 00:37:11;;;;;;;27.70;14.68;;;6.20;94.90;;;;;;5034065;28;20038;-81
2021/11/27 00:39:37;;;;;;;28.75;15.45;;;6.20;95.60;;;;;;5033635;28;20120;-81
2021/11/27 00:42:03;;;;;;;26.20;13.43;;;6.30;96.00;;;;;;5035286;28;20547;-81
2021/11/27 00:44:29;;;;;;;28.98;15.23;;;6.30;95.80;;;;;;5034698;28;20108;-81
2021/11/27 00:46:56;;;;;;;28.20;15.48;;;6.30;96.40;;;;;;5033318;28;20120;-81
2021/11/27 00:49:24;;;;;;;34.00;16.85;;;6.40;97.40;;;;;;5033372;28;20033;-80
2021/11/27 00:51:50;;;;;;;30.80;15.57;;;6.40;98.30;;;;;;5034285;28;20649;-81
2021/11/27 00:54:19;;;;;;;34.20;17.73;;;6.40;98.10;;;;;;5034173;28;20494;-80
2021/11/27 00:56:45;;;;;;;32.30;17.73;;;6.40;99.90;;;;;;5032964;28;20029;-80
2021/11/27 00:59:11;;;;;;;30.48;16.13;;;6.40;99.90;;;;;;5033251;28;20464;-79
2021/11/27 01:01:37;;;;;;;34.10;17.85;;;6.40;99.90;;;;;;5034256;28;20498;-79
2021/11/27 01:04:04;;;;;;;38.03;19.27;;;6.40;99.90;;;;;;5032854;28;20112;-79
2021/11/27 01:06:30;;;;;;;42.65;18.83;;;6.40;99.90;;;;;;5032970;28;20021;-80
2021/11/27 01:09:00;;;;;;;38.17;17.83;;;6.40;99.90;;;;;;5033486;28;20116;-80
2021/11/27 01:11:32;;;;;;;34.22;18.95;;;6.40;99.90;;;;;;5034736;28;20574;-79
2021/11/27 01:14:05;;;;;;;30.83;16.90;;;6.40;99.90;;;;;;5032915;28;20051;-80
2021/11/27 01:16:35;;;;;;;33.10;17.40;;;6.40;99.90;;;;;;5032909;28;20037;-81
2021/11/27 01:19:02;;;;;;;28.63;15.90;;;6.40;99.90;;;;;;5049913;28;20057;-80
2021/11/27 01:21:34;;;;;;;28.75;16.50;;;6.40;99.90;;;;;;5033760;28;20045;-79
2021/11/27 01:24:03;;;;;;;27.95;15.80;;;6.30;99.90;;;;;;5034062;28;20068;-80
2021/11/27 01:26:33;;;;;;;30.60;16.45;;;6.30;99.90;;;;;;5032973;28;20469;-82
2021/11/27 01:29:00;;;;;;;30.60;16.40;;;6.30;99.90;;;;;;5032852;28;20057;-81
2021/11/27 01:31:26;;;;;;;30.30;17.00;;;6.30;99.90;;;;;;5033551;28;20033;-81
2021/11/27 01:33:52;;;;;;;30.05;15.38;;;6.20;99.90;;;;;;5049402;28;20083;-80
2021/11/27 01:36:18;;;;;;;30.13;16.13;;;6.20;99.90;;;;;;5032920;28;20025;-78
2021/11/27 01:38:44;;;;;;;25.65;14.38;;;6.20;99.90;;;;;;5032910;28;20031;-79
2021/11/27 01:41:14;;;;;;;32.97;16.45;;;6.20;99.90;;;;;;5032498;28;20030;-79
2021/11/27 01:43:41;;;;;;;28.77;15.53;;;6.20;99.90;;;;;;5036008;28;20056;-80
2021/11/27 01:46:07;;;;;;;27.05;15.20;;;6.20;99.90;;;;;;5036617;28;20270;-80
2021/11/27 01:48:34;;;;;;;29.10;14.98;;;6.20;99.90;;;;;;5036656;28;20029;-80
2021/11/27 01:51:03;;;;;;;33.65;17.33;;;6.10;99.90;;;;;;5036618;28;20036;-80
2021/11/27 01:53:31;;;;;;;29.98;16.60;;;6.20;99.90;;;;;;5036438;28;20033;-81
2021/11/27 01:56:03;;;;;;;31.40;16.92;;;6.20;99.90;;;;;;5037748;28;20110;-80
2021/11/27 01:58:31;;;;;;;34.50;17.85;;;6.20;99.90;;;;;;5036171;28;20053;-81
2021/11/27 02:01:10;;;;;;;40.85;20.58;;;6.20;99.90;;;;;;5037380;28;20025;-80
2021/11/27 02:03:37;;;;;;;42.28;20.00;;;6.20;99.90;;;;;;5036649;28;20450;-80
2021/11/27 02:06:05;;;;;;;49.25;22.77;;;6.20;99.90;;;;;;5036165;28;20117;-80
2021/11/27 02:08:31;;;;;;;44.67;22.30;;;6.20;99.90;;;;;;5036115;28;20029;-80
2021/11/27 02:10:58;;;;;;;46.67;22.65;;;6.30;99.90;;;;;;5036198;28;20034;-80
2021/11/27 02:13:23;;;;;;;48.53;21.52;;;6.20;99.90;;;;;;5037361;28;20030;-80
2021/11/27 02:15:49;;;;;;;44.97;21.45;;;6.30;99.90;;;;;;5037453;28;20057;-80
2021/11/27 02:18:15;;;;;;;44.72;21.38;;;6.20;99.90;;;;;;5036017;28;20026;-80
2021/11/27 02:20:53;;;;;;;44.72;20.13;;;6.30;99.90;;;;;;5036983;28;20029;-80
2021/11/27 02:23:19;;;;;;;38.60;19.58;;;6.20;99.90;;;;;;5035894;28;20057;-79
2021/11/27 02:25:45;;;;;;;33.53;16.85;;;6.20;99.90;;;;;;5036924;28;20439;-80
2021/11/27 02:28:11;;;;;;;33.28;17.48;;;6.20;99.90;;;;;;5035644;28;20468;-80
2021/11/27 02:30:37;;;;;;;39.33;19.02;;;6.20;99.90;;;;;;5036189;28;20080;-80
2021/11/27 02:33:03;;;;;;;33.67;17.60;;;6.30;99.90;;;;;;5036944;28;20036;-79
2021/11/27 02:35:29;;;;;;;29.92;16.75;;;6.30;99.90;;;;;;5035411;28;20022;-79
2021/11/27 02:37:55;;;;;;;35.83;17.95;;;6.30;99.90;;;;;;5035210;28;20029;-81
2021/11/27 02:40:21;;;;;;;33.55;17.80;;;6.30;99.90;;;;;;5036732;28;20112;-80
2021/11/27 02:42:46;;;;;;;41.40;19.80;;;6.30;99.90;;;;;;5035058;28;20407;-80
2021/11/27 02:45:14;;;;;;;43.42;20.25;;;6.30;99.90;;;;;;5035529;28;20550;-78
2021/11/27 02:47:40;;;;;;;40.78;18.73;;;6.40;99.90;;;;;;5035915;28;20063;-80
2021/11/27 02:50:08;;;;;;;46.53;20.95;;;6.40;99.90;;;;;;5036734;28;20132;-81
2021/11/27 02:52:35;;;;;;;41.75;19.40;;;6.40;99.90;;;;;;5035439;28;20029;-81
2021/11/27 02:55:02;;;;;;;43.25;19.92;;;6.40;99.90;;;;;;5035073;28;20464;-80
2021/11/27 02:57:29;;;;;;;39.45;17.73;;;6.40;99.90;;;;;;5035043;28;20504;-80
2021/11/27 02:59:55;;;;;;;34.47;16.75;;;6.50;99.90;;;;;;5038080;28;20048;-80
2021/11/27 03:02:21;;;;;;;42.58;18.02;;;6.50;99.90;;;;;;5041651;28;20037;-80
2021/11/27 03:04:49;;;;;;;40.55;17.40;;;6.50;99.90;;;;;;5040646;28;20053;-79
2021/11/27 03:07:16;;;;;;;34.55;15.82;;;6.60;99.90;;;;;;5040933;28;20025;-80
2021/11/27 03:09:42;;;;;;;52.33;19.83;;;6.60;99.90;;;;;;5040404;28;20076;-81
2021/11/27 03:12:08;;;;;;;56.17;22.05;;;6.70;99.90;;;;;;5038338;28;20030;-79
2021/11/27 03:14:35;;;;;;;66.65;24.50;;;6.70;99.90;;;;;;5042826;28;20026;-79
2021/11/27 03:17:01;;;;;;;83.47;27.58;;;6.80;99.90;;;;;;5039228;28;20488;-79
2021/11/27 03:19:34;;;;;;;119.95;36.75;;;6.80;99.90;;;;;;5034985;28;20113;-80
2021/11/27 03:22:00;;;;;;;146.10;40.80;;;6.90;99.90;;;;;;5034856;28;20083;-80
2021/11/27 03:24:26;;;;;;;170.27;46.35;;;6.90;99.90;;;;;;5034860;28;20037;-80
2021/11/27 03:26:52;;;;;;;165.20;43.58;;;7.00;99.90;;;;;;5036299;28;20029;-80
2021/11/27 03:29:18;;;;;;;148.15;41.38;;;7.10;99.90;;;;;;5035919;28;20025;-80
2021/11/27 03:31:44;;;;;;;142.20;40.50;;;7.10;99.90;;;;;;5035693;28;20482;-80
2021/11/27 03:34:10;;;;;;;165.20;42.17;;;7.20;99.90;;;;;;5034443;28;20033;-80
2021/11/27 03:36:36;;;;;;;169.18;42.72;;;7.20;99.90;;;;;;5034270;28;20040;-80
2021/11/27 03:39:04;;;;;;;156.05;38.55;;;7.30;99.90;;;;;;5035621;28;20379;-80
2021/11/27 03:41:30;;;;;;;121.82;31.75;;;7.30;99.90;;;;;;5035781;28;20033;-80
2021/11/27 03:43:56;;;;;;;84.03;25.17;;;7.30;99.90;;;;;;5034208;28;20028;-80
2021/11/27 03:46:22;;;;;;;67.82;22.27;;;7.30;99.90;;;;;;5035566;28;20025;-81
2021/11/27 03:48:52;;;;;;;72.05;22.48;;;7.40;99.90;;;;;;5033999;28;20025;-80
2021/11/27 03:51:21;;;;;;;81.28;23.42;;;7.40;99.90;;;;;;5034135;28;20391;-80
2021/11/27 03:53:48;;;;;;;73.57;23.02;;;7.40;99.90;;;;;;5034237;28;20033;-79
2021/11/27 03:56:26;;;;;;;106.75;31.65;;;7.50;99.90;;;;;;5034383;28;20483;-80
2021/11/27 03:58:53;;;;;;;108.95;30.75;;;7.40;99.90;;;;;;5033958;28;20060;-79
2021/11/27 04:01:21;;;;;;;76.55;22.85;;;7.50;99.90;;;;;;5033989;28;20063;-79
2021/11/27 04:03:48;;;;;;;80.55;23.60;;;7.50;99.90;;;;;;5034949;28;20484;-79
2021/11/27 04:06:14;;;;;;;70.03;21.08;;;7.50;99.90;;;;;;5034357;28;20479;-79
2021/11/27 04:08:40;;;;;;;49.55;18.90;;;7.50;99.90;;;;;;5035101;28;20035;-79
2021/11/27 04:11:06;;;;;;;76.55;27.42;;;7.50;99.90;;;;;;5033685;28;20037;-79
2021/11/27 04:13:33;;;;;;;54.45;21.50;;;7.50;99.90;;;;;;5034970;28;20464;-79
2021/11/27 04:16:01;;;;;;;20.80;10.02;;;7.50;99.90;;;;;;5035018;28;20028;-79
2021/11/27 04:18:27;;;;;;;27.60;11.98;;;7.50;99.90;;;;;;5033747;28;20128;-79
2021/11/27 04:20:53;;;;;;;46.70;16.73;;;7.50;99.90;;;;;;5033560;28;20048;-79
2021/11/27 04:23:20;;;;;;;32.40;13.18;;;7.50;99.90;;;;;;5034805;28;20021;-79
2021/11/27 04:25:46;;;;;;;29.90;12.35;;;7.50;99.90;;;;;;5034847;28;20034;-79
2021/11/27 04:28:12;;;;;;;27.58;12.00;;;7.50;99.90;;;;;;5033282;28;20025;-79
2021/11/27 04:30:39;;;;;;;29.52;12.25;;;7.50;99.90;;;;;;5034881;28;20064;-79
2021/11/27 04:33:06;;;;;;;17.45;8.38;;;7.50;99.90;;;;;;5033558;28;20083;-79
2021/11/27 04:35:34;;;;;;;23.92;10.35;;;7.50;99.90;;;;;;5029035;28;20572;-79
2021/11/27 04:38:00;;;;;;;31.63;12.88;;;7.50;99.90;;;;;;5014923;28;20030;-79
2021/11/27 04:40:27;;;;;;;17.98;8.68;;;7.50;99.90;;;;;;5014557;28;20095;-78
2021/11/27 04:42:53;;;;;;;11.05;6.30;;;7.50;99.90;;;;;;5014799;28;20022;-79
2021/11/27 04:45:20;;;;;;;8.75;6.15;;;7.50;99.90;;;;;;5014564;28;20080;-78
2021/11/27 04:47:47;;;;;;;8.68;5.70;;;7.50;99.90;;;;;;5046502;28;20456;-79
2021/11/27 04:50:15;;;;;;;7.80;5.60;;;7.50;99.90;;;;;;5014432;28;20033;-79
2021/11/27 04:52:41;;;;;;;8.05;5.18;;;7.50;99.90;;;;;;5046060;28;20033;-79
2021/11/27 04:55:09;;;;;;;6.55;4.20;;;7.50;99.90;;;;;;5014246;28;20030;-79
2021/11/27 04:57:35;;;;;;;8.48;4.22;;;7.50;99.90;;;;;;5014577;28;20049;-79
2021/11/27 05:00:05;;;;;;;6.88;4.55;;;7.50;99.90;;;;;;5014439;28;20503;-79
2021/11/27 05:02:31;;;;;;;5.50;4.00;;;7.50;99.90;;;;;;5014133;28;20461;-79
2021/11/27 05:04:56;;;;;;;5.70;3.60;;;7.50;99.90;;;;;;5046049;28;20029;-79
2021/11/27 05:07:22;;;;;;;5.43;3.50;;;7.60;99.90;;;;;;5014343;28;20033;-79
2021/11/27 05:09:48;;;;;;;5.68;3.50;;;7.60;99.90;;;;;;5013711;28;20116;-79
2021/11/27 05:12:13;;;;;;;4.47;3.30;;;7.60;99.90;;;;;;5014076;28;20030;-79
2021/11/27 05:14:40;;;;;;;4.55;3.28;;;7.70;99.90;;;;;;5014600;28;20034;-79
2021/11/27 05:17:05;;;;;;;5.10;3.35;;;7.70;99.90;;;;;;5045534;28;20065;-80
2021/11/27 05:19:34;;;;;;;5.18;3.50;;;7.70;99.90;;;;;;5012877;28;20486;-79
2021/11/27 05:22:00;;;;;;;6.00;3.50;;;7.80;99.90;;;;;;5021426;28;20039;-80
2021/11/27 05:24:27;;;;;;;6.28;3.58;;;7.80;99.90;;;;;;5032651;28;20124;-80
2021/11/27 05:26:53;;;;;;;6.63;3.58;;;7.80;99.90;;;;;;5033713;28;20127;-80
2021/11/27 05:29:19;;;;;;;6.45;3.80;;;7.80;99.90;;;;;;5033807;28;20053;-80
2021/11/27 05:31:46;;;;;;;6.03;3.90;;;7.80;99.90;;;;;;5032328;28;20030;-79
2021/11/27 05:34:33;;;;;;;9.15;5.40;;;7.80;99.90;;;;;;5032532;28;20041;-80
2021/11/27 05:37:03;;;;;;;8.93;4.82;;;7.90;99.90;;;;;;5032475;28;20049;-80
2021/11/27 05:39:29;;;;;;;8.80;5.20;;;7.90;99.90;;;;;;5033585;28;20030;-79
2021/11/27 05:41:55;;;;;;;8.25;5.18;;;7.90;99.90;;;;;;5034066;28;20030;-80
2021/11/27 05:44:21;;;;;;;7.57;4.72;;;8.00;99.90;;;;;;5032081;28;20029;-80
2021/11/27 05:46:47;;;;;;;9.27;5.57;;;8.00;99.90;;;;;;5033792;28;20032;-80
2021/11/27 05:49:13;;;;;;;11.57;6.45;;;8.00;99.90;;;;;;5033570;28;20100;-80
2021/11/27 05:51:39;;;;;;;11.20;6.63;;;8.00;99.90;;;;;;5032402;28;20379;-79
2021/11/27 05:54:05;;;;;;;10.73;6.53;;;8.10;99.90;;;;;;5033512;28;20026;-80
2021/11/27 05:56:34;;;;;;;9.50;5.95;;;8.10;99.90;;;;;;5031995;28;20036;-81
2021/11/27 05:59:00;;;;;;;13.02;6.13;;;8.20;99.90;;;;;;5033263;28;20045;-80
2021/11/27 06:01:28;;;;;;;8.95;5.97;;;8.20;99.90;;;;;;5031614;28;20117;-81
2021/11/27 06:03:54;;;;;;;11.35;7.03;;;8.20;99.90;;;;;;5033824;28;20060;-83
2021/11/27 06:06:20;;;;;;;11.75;6.97;;;8.30;99.90;;;;;;5033546;28;20217;-81
2021/11/27 06:08:45;;;;;;;8.70;5.80;;;8.30;99.90;;;;;;5031837;28;20490;-80
2021/11/27 06:11:12;;;;;;;9.18;6.40;;;8.30;99.90;;;;;;5033639;28;20555;-79
2021/11/27 06:13:38;;;;;;;10.52;6.40;;;8.30;99.90;;;;;;5032276;28;20025;-79
2021/11/27 06:16:07;;;;;;;9.15;6.72;;;8.40;99.90;;;;;;5034054;28;20032;-79
2021/11/27 06:18:34;;;;;;;8.90;6.47;;;8.40;99.90;;;;;;5034176;28;20041;-78
2021/11/27 06:21:01;;;;;;;11.98;6.93;;;8.40;99.90;;;;;;5031819;28;21173;-79
2021/11/27 06:23:28;;;;;;;9.95;7.13;;;8.50;99.90;;;;;;5033023;28;20120;-82
2021/11/27 06:25:56;;;;;;;14.18;9.32;;;8.50;99.90;;;;;;5033024;28;20029;-84
2021/11/27 06:28:23;;;;;;;10.93;7.53;;;8.50;99.90;;;;;;5034157;28;20072;-84
2021/11/27 06:30:52;;;;;;;11.18;6.63;;;8.50;99.90;;;;;;5035271;28;20025;-81
2021/11/27 06:33:18;;;;;;;13.48;7.80;;;8.50;99.90;;;;;;5035137;28;20053;-80
2021/11/27 06:35:43;;;;;;;27.85;17.48;;;8.50;99.90;;;;;;5034430;28;20026;-78
2021/11/27 06:38:11;;;;;;;19.30;12.85;;;8.50;99.90;;;;;;5068945;28;20190;-79
2021/11/27 06:40:37;;;;;;;18.60;11.98;;;8.60;99.90;;;;;;5035730;28;20398;-79
2021/11/27 06:43:03;;;;;;;15.25;9.43;;;8.60;99.90;;;;;;5068556;28;20025;-79
2021/11/27 06:45:30;;;;;;;12.15;8.63;;;8.60;99.90;;;;;;5036923;28;20025;-79
2021/11/27 06:47:57;;;;;;;17.10;9.98;;;8.70;99.90;;;;;;5036101;28;20026;-80
2021/11/27 06:50:23;;;;;;;16.75;9.43;;;8.70;99.90;;;;;;5034401;28;20097;-82
2021/11/27 06:52:49;;;;;;;16.83;10.20;;;8.70;99.90;;;;;;5033295;28;20123;-80
2021/11/27 06:55:15;;;;;;;19.20;11.75;;;8.70;99.90;;;;;;5034626;28;20598;-79
2021/11/27 06:57:41;;;;;;;33.28;16.27;;;8.80;99.90;;;;;;5034311;28;20496;-79
2021/11/27 07:00:08;;;;;;;23.40;13.80;;;8.80;99.90;;;;;;5034804;28;20032;-80
2021/11/27 07:02:34;;;;;;;13.50;9.13;;;8.90;99.90;;;;;;5066019;28;20041;-80
2021/11/27 07:05:00;;;;;;;12.95;9.05;;;8.90;99.90;;;;;;5034113;28;20029;-78
2021/11/27 07:07:26;;;;;;;16.45;11.32;;;9.00;99.90;;;;;;5034763;28;20033;-79
2021/11/27 07:09:52;;;;;;;16.83;11.27;;;9.00;99.90;;;;;;5068153;28;20113;-79
2021/11/27 07:12:18;;;;;;;17.83;12.10;;;9.00;99.90;;;;;;5068435;28;20026;-79
2021/11/27 07:14:44;;;;;;;15.52;11.00;;;9.00;99.90;;;;;;5036150;28;20036;-79
2021/11/27 07:17:09;;;;;;;15.00;9.60;;;9.00;99.90;;;;;;5034968;28;20349;-80
2021/11/27 07:19:35;;;;;;;17.65;9.82;;;9.00;99.90;;;;;;5035576;28;20101;-80
2021/11/27 07:22:02;;;;;;;17.15;10.52;;;9.00;99.90;;;;;;5034631;28;20029;-80
2021/11/27 07:24:29;;;;;;;15.55;9.38;;;9.00;99.90;;;;;;5035636;28;20061;-80
2021/11/27 07:26:55;;;;;;;14.48;8.90;;;9.00;99.90;;;;;;5035992;28;20106;-79
2021/11/27 07:29:21;;;;;;;13.23;8.70;;;9.00;99.90;;;;;;5035590;28;20421;-80
2021/11/27 07:31:47;;;;;;;13.70;9.10;;;9.00;99.90;;;;;;5035969;28;20112;-80
2021/11/27 07:34:13;;;;;;;17.23;9.70;;;9.10;99.90;;;;;;5036077;28;20105;-79
2021/11/27 07:36:39;;;;;;;17.23;11.32;;;9.10;99.90;;;;;;5034865;28;20057;-80
2021/11/27 07:39:08;;;;;;;19.15;14.73;;;9.20;99.90;;;;;;5034541;28;20427;-78
2021/11/27 07:41:34;;;;;;;20.40;15.13;;;9.20;99.90;;;;;;5070829;28;20037;-79
2021/11/27 07:44:00;;;;;;;23.30;14.75;;;9.30;99.90;;;;;;5039958;28;20057;-81
2021/11/27 07:46:27;;;;;;;22.73;15.13;;;9.30;99.90;;;;;;5074246;28;20426;-79
2021/11/27 07:48:56;;;;;;;20.50;13.60;;;9.30;99.90;;;;;;5039169;28;20025;-79
2021/11/27 07:51:21;;;;;;;21.30;14.30;;;9.30;99.90;;;;;;5037961;28;20036;-78
2021/11/27 07:53:47;;;;;;;25.65;15.88;;;9.40;99.90;;;;;;5071085;28;20375;-80
2021/11/27 07:56:14;;;;;;;23.60;15.73;;;9.40;99.90;;;;;;5038586;28;20025;-78
2021/11/27 07:58:40;;;;;;;25.70;16.60;;;9.40;99.90;;;;;;5067435;28;20125;-78
2021/11/27 08:01:06;;;;;;;26.30;17.92;;;9.40;99.90;;;;;;5066509;28;20030;-77
2021/11/27 08:03:33;;;;;;;30.15;19.08;;;9.50;99.90;;;;;;5067359;28;20103;-77
2021/11/27 08:05:59;;;;;;;25.17;17.88;;;9.50;99.90;;;;;;5036090;28;20426;-81
2021/11/27 08:08:25;;;;;;;18.17;13.18;;;9.60;99.90;;;;;;5034007;28;20059;-80
2021/11/27 08:10:51;;;;;;;19.63;12.23;;;9.60;99.90;;;;;;5035017;28;20064;-79
2021/11/27 08:13:17;;;;;;;17.17;10.60;;;9.60;99.90;;;;;;5035263;28;20486;-79
2021/11/27 08:15:43;;;;;;;14.85;10.13;;;9.60;99.90;;;;;;5067481;28;20038;-80
2021/11/27 08:18:09;;;;;;;17.38;11.13;;;9.70;99.90;;;;;;5035150;28;20051;-81
2021/11/27 08:20:35;;;;;;;20.27;11.95;;;9.70;99.90;;;;;;5034537;28;20034;-81
2021/11/27 08:23:01;;;;;;;22.35;13.18;;;9.70;99.90;;;;;;5037581;28;20379;-80
2021/11/27 08:25:27;;;;;;;23.02;13.75;;;9.70;99.90;;;;;;5038185;28;20350;-79
2021/11/27 08:27:54;;;;;;;18.02;11.82;;;9.80;99.90;;;;;;5037368;28;20028;-80
2021/11/27 08:30:19;;;;;;;18.75;10.75;;;9.80;99.90;;;;;;5068282;28;20026;-78
2021/11/27 08:32:49;;;;;;;16.23;10.68;;;9.80;99.90;;;;;;5066795;28;20021;-80
2021/11/27 08:35:16;;;;;;;19.90;11.95;;;9.80;99.90;;;;;;5034191;28;20112;-80
2021/11/27 08:37:43;;;;;;;15.57;11.10;;;9.90;99.90;;;;;;5033093;28;20498;-82
2021/11/27 08:40:10;;;;;;;18.77;11.02;;;9.90;99.90;;;;;;5033332;28;20029;-80
2021/11/27 08:42:36;;;;;;;19.85;12.95;;;10.00;99.90;;;;;;5031858;28;20037;-80
2021/11/27 08:45:06;;;;;;;18.83;12.43;;;10.00;99.90;;;;;;5032110;28;20400;-82
2021/11/27 08:47:32;;;;;;;22.57;13.13;;;10.10;99.90;;;;;;5033077;28;20025;-81
2021/11/27 08:50:00;;;;;;;18.02;11.90;;;10.10;99.90;;;;;;5031306;28;20080;-80
2021/11/27 08:52:26;;;;;;;16.35;11.35;;;10.20;99.90;;;;;;5031030;28;20018;-79
2021/11/27 08:54:52;;;;;;;18.15;12.07;;;10.20;99.90;;;;;;5031297;28;20021;-82
2021/11/27 08:57:17;;;;;;;20.00;11.02;;;10.20;99.90;;;;;;5032287;28;20392;-80
2021/11/27 08:59:44;;;;;;;17.02;11.55;;;10.30;99.90;;;;;;5031311;28;20029;-80
2021/11/27 09:02:11;;;;;;;18.38;11.70;;;10.30;99.90;;;;;;5032485;28;20048;-80
2021/11/27 09:04:36;;;;;;;20.38;12.05;;;10.30;99.90;;;;;;5031340;28;20044;-80
2021/11/27 09:07:03;;;;;;;19.38;12.68;;;10.40;99.90;;;;;;5031106;28;20476;-81
2021/11/27 09:09:29;;;;;;;22.75;13.27;;;10.50;99.90;;;;;;5031448;28;20026;-78
2021/11/27 09:11:55;;;;;;;18.40;11.65;;;10.70;99.90;;;;;;5032749;28;20071;-84
2021/11/27 09:14:20;;;;;;;17.67;11.80;;;10.70;99.90;;;;;;5031521;28;20026;-84
2021/11/27 09:16:50;;;;;;;15.95;11.02;;;10.80;99.90;;;;;;5032505;28;20460;-83
